sensor_id;sensor_type;location;lat;lon;timestamp;P1;durP1;ratioP1;P2;durP2;ratioP2
60478;SDS011;46321;48.398;11.754;2023-02-15T00:00:02;33.70;;;11.75;;
60478;SDS011;46321;48.398;11.754;2023-02-15T00:02:30;31.50;;;10.77;;
60478;SDS011;46321;48.398;11.754;2023-02-15T00:04:55;35.40;;;10.25;;
60478;SDS011;46321;48.398;11.754;2023-02-15T00:07:21;23.15;;;9.43;;
60478;SDS011;46321;48.398;11.754;2023-02-15T00:09:47;24.50;;;10.05;;
60478;SDS011;46321;48.398;11.754;2023-02-15T00:12:13;31.73;;;11.38;;
60478;SDS011;46321;48.398;11.754;2023-02-15T00:14:39;20.67;;;9.07;;
60478;SDS011;46321;48.398;11.754;2023-02-15T00:17:04;25.35;;;10.48;;
60478;SDS011;46321;48.398;11.754;2023-02-15T00:19:30;27.02;;;10.25;;
60478;SDS011;46321;48.398;11.754;2023-02-15T00:21:55;27.70;;;10.40;;
60478;SDS011;46321;48.398;11.754;2023-02-15T00:24:20;31.17;;;11.05;;
60478;SDS011;46321;48.398;11.754;2023-02-15T00:26:46;27.35;;;11.20;;
60478;SDS011;46321;48.398;11.754;2023-02-15T00:29:12;41.17;;;12.02;;
60478;SDS011;46321;48.398;11.754;2023-02-15T00:31:39;32.88;;;11.10;;
60478;SDS011;46321;48.398;11.754;2023-02-15T00:34:05;26.08;;;10.30;;
60478;SDS011;46321;48.398;11.754;2023-02-15T00:36:32;29.35;;;11.05;;
60478;SDS011;46321;48.398;11.754;2023-02-15T00:38:57;25.58;;;10.65;;
60478;SDS011;46321;48.398;11.754;2023-02-15T00:41:23;29.90;;;11.05;;
60478;SDS011;46321;48.398;11.754;2023-02-15T00:43:48;30.85;;;10.45;;
60478;SDS011;46321;48.398;11.754;2023-02-15T00:46:14;28.23;;;10.95;;
60478;SDS011;46321;48.398;11.754;2023-02-15T00:48:39;33.95;;;11.55;;
60478;SDS011;46321;48.398;11.754;2023-02-15T00:51:04;27.23;;;10.90;;
60478;SDS011;46321;48.398;11.754;2023-02-15T00:53:30;24.70;;;10.00;;
60478;SDS011;46321;48.398;11.754;2023-02-15T00:55:56;31.10;;;10.85;;
60478;SDS011;46321;48.398;11.754;2023-02-15T00:58:22;35.25;;;11.90;;
60478;SDS011;46321;48.398;11.754;2023-02-15T01:00:47;23.42;;;9.43;;
60478;SDS011;46321;48.398;11.754;2023-02-15T01:03:13;42.72;;;11.82;;
60478;SDS011;46321;48.398;11.754;2023-02-15T01:05:40;36.75;;;11.07;;
60478;SDS011;46321;48.398;11.754;2023-02-15T01:08:05;34.85;;;11.05;;
60478;SDS011;46321;48.398;11.754;2023-02-15T01:10:31;34.88;;;13.23;;
60478;SDS011;46321;48.398;11.754;2023-02-15T01:12:58;41.22;;;12.48;;
60478;SDS011;46321;48.398;11.754;2023-02-15T01:15:23;43.22;;;12.57;;
60478;SDS011;46321;48.398;11.754;2023-02-15T01:17:49;52.40;;;12.20;;
60478;SDS011;46321;48.398;11.754;2023-02-15T01:20:21;35.85;;;11.93;;
60478;SDS011;46321;48.398;11.754;2023-02-15T01:22:50;34.10;;;10.70;;
60478;SDS011;46321;48.398;11.754;2023-02-15T01:25:16;60.72;;;12.27;;
60478;SDS011;46321;48.398;11.754;2023-02-15T01:27:43;29.08;;;10.90;;
60478;SDS011;46321;48.398;11.754;2023-02-15T01:30:09;29.77;;;10.88;;
60478;SDS011;46321;48.398;11.754;2023-02-15T01:32:35;28.73;;;11.38;;
60478;SDS011;46321;48.398;11.754;2023-02-15T01:35:00;35.40;;;10.32;;
60478;SDS011;46321;48.398;11.754;2023-02-15T01:37:26;31.88;;;11.65;;
60478;SDS011;46321;48.398;11.754;2023-02-15T01:39:51;30.55;;;11.75;;
60478;SDS011;46321;48.398;11.754;2023-02-15T01:42:23;36.75;;;11.52;;
60478;SDS011;46321;48.398;11.754;2023-02-15T01:44:50;29.63;;;10.68;;
60478;SDS011;46321;48.398;11.754;2023-02-15T01:47:50;32.90;;;11.50;;
60478;SDS011;46321;48.398;11.754;2023-02-15T01:50:53;27.08;;;10.82;;
60478;SDS011;46321;48.398;11.754;2023-02-15T01:53:15;33.85;;;11.40;;
60478;SDS011;46321;48.398;11.754;2023-02-15T01:55:50;40.88;;;12.35;;
60478;SDS011;46321;48.398;11.754;2023-02-15T01:58:20;28.92;;;10.73;;
60478;SDS011;46321;48.398;11.754;2023-02-15T02:00:46;26.02;;;10.40;;
60478;SDS011;46321;48.398;11.754;2023-02-15T02:03:12;29.05;;;10.43;;
60478;SDS011;46321;48.398;11.754;2023-02-15T02:05:38;30.27;;;10.10;;
60478;SDS011;46321;48.398;11.754;2023-02-15T02:08:05;38.85;;;11.73;;
60478;SDS011;46321;48.398;11.754;2023-02-15T02:10:32;34.30;;;11.02;;
60478;SDS011;46321;48.398;11.754;2023-02-15T02:12:58;28.95;;;10.90;;
60478;SDS011;46321;48.398;11.754;2023-02-15T02:15:29;30.02;;;12.13;;
60478;SDS011;46321;48.398;11.754;2023-02-15T02:18:12;25.50;;;10.70;;
60478;SDS011;46321;48.398;11.754;2023-02-15T02:20:51;28.73;;;10.70;;
60478;SDS011;46321;48.398;11.754;2023-02-15T02:28:39;27.35;;;10.52;;
60478;SDS011;46321;48.398;11.754;2023-02-15T02:34:10;29.95;;;11.02;;
60478;SDS011;46321;48.398;11.754;2023-02-15T02:36:40;24.20;;;10.45;;
60478;SDS011;46321;48.398;11.754;2023-02-15T02:42:01;30.20;;;10.60;;
60478;SDS011;46321;48.398;11.754;2023-02-15T02:44:35;27.80;;;11.07;;
60478;SDS011;46321;48.398;11.754;2023-02-15T02:47:30;28.45;;;11.32;;
60478;SDS011;46321;48.398;11.754;2023-02-15T02:50:13;26.92;;;9.90;;
60478;SDS011;46321;48.398;11.754;2023-02-15T02:52:51;32.30;;;11.82;;
60478;SDS011;46321;48.398;11.754;2023-02-15T02:57:53;25.65;;;10.23;;
60478;SDS011;46321;48.398;11.754;2023-02-15T03:00:23;26.05;;;11.38;;
60478;SDS011;46321;48.398;11.754;2023-02-15T03:02:52;27.13;;;10.70;;
60478;SDS011;46321;48.398;11.754;2023-02-15T03:05:23;26.30;;;10.63;;
60478;SDS011;46321;48.398;11.754;2023-02-15T03:07:52;25.65;;;10.50;;
60478;SDS011;46321;48.398;11.754;2023-02-15T03:10:22;30.08;;;10.90;;
60478;SDS011;46321;48.398;11.754;2023-02-15T03:12:49;27.63;;;11.10;;
60478;SDS011;46321;48.398;11.754;2023-02-15T03:17:51;26.05;;;10.07;;
60478;SDS011;46321;48.398;11.754;2023-02-15T03:20:24;29.27;;;11.17;;
60478;SDS011;46321;48.398;11.754;2023-02-15T03:22:57;27.92;;;10.38;;
60478;SDS011;46321;48.398;11.754;2023-02-15T03:25:39;25.58;;;10.18;;
60478;SDS011;46321;48.398;11.754;2023-02-15T03:28:09;37.55;;;11.13;;
60478;SDS011;46321;48.398;11.754;2023-02-15T03:30:38;24.13;;;10.73;;
60478;SDS011;46321;48.398;11.754;2023-02-15T03:33:07;29.92;;;10.70;;
60478;SDS011;46321;48.398;11.754;2023-02-15T03:35:36;29.17;;;11.25;;
60478;SDS011;46321;48.398;11.754;2023-02-15T03:38:08;27.90;;;9.50;;
60478;SDS011;46321;48.398;11.754;2023-02-15T03:40:40;27.02;;;10.55;;
60478;SDS011;46321;48.398;11.754;2023-02-15T03:43:32;25.08;;;9.80;;
60478;SDS011;46321;48.398;11.754;2023-02-15T03:46:28;23.63;;;10.40;;
60478;SDS011;46321;48.398;11.754;2023-02-15T03:49:21;25.90;;;9.88;;
60478;SDS011;46321;48.398;11.754;2023-02-15T03:51:54;30.83;;;10.50;;
60478;SDS011;46321;48.398;11.754;2023-02-15T03:54:26;25.27;;;9.98;;
60478;SDS011;46321;48.398;11.754;2023-02-15T04:00:17;25.33;;;9.50;;
60478;SDS011;46321;48.398;11.754;2023-02-15T04:05:39;27.48;;;10.38;;
60478;SDS011;46321;48.398;11.754;2023-02-15T04:08:06;27.92;;;10.43;;
60478;SDS011;46321;48.398;11.754;2023-02-15T04:10:31;24.15;;;9.77;;
60478;SDS011;46321;48.398;11.754;2023-02-15T04:13:15;22.48;;;9.60;;
60478;SDS011;46321;48.398;11.754;2023-02-15T04:15:40;28.73;;;10.85;;
60478;SDS011;46321;48.398;11.754;2023-02-15T04:18:24;29.52;;;10.60;;
60478;SDS011;46321;48.398;11.754;2023-02-15T04:21:08;24.67;;;10.55;;
60478;SDS011;46321;48.398;11.754;2023-02-15T04:23:52;28.45;;;10.65;;
60478;SDS011;46321;48.398;11.754;2023-02-15T04:26:35;25.75;;;10.25;;
60478;SDS011;46321;48.398;11.754;2023-02-15T04:29:01;23.17;;;9.70;;
60478;SDS011;46321;48.398;11.754;2023-02-15T04:31:26;24.80;;;10.05;;
60478;SDS011;46321;48.398;11.754;2023-02-15T04:33:51;26.60;;;10.55;;
60478;SDS011;46321;48.398;11.754;2023-02-15T04:36:16;24.80;;;10.27;;
60478;SDS011;46321;48.398;11.754;2023-02-15T04:38:42;22.48;;;9.65;;
60478;SDS011;46321;48.398;11.754;2023-02-15T04:41:07;24.05;;;10.18;;
60478;SDS011;46321;48.398;11.754;2023-02-15T04:43:32;22.85;;;9.95;;
60478;SDS011;46321;48.398;11.754;2023-02-15T04:45:58;22.52;;;9.85;;
60478;SDS011;46321;48.398;11.754;2023-02-15T04:48:23;24.77;;;10.13;;
60478;SDS011;46321;48.398;11.754;2023-02-15T04:50:49;22.90;;;9.93;;
60478;SDS011;46321;48.398;11.754;2023-02-15T04:53:14;27.10;;;10.68;;
60478;SDS011;46321;48.398;11.754;2023-02-15T04:55:41;28.05;;;10.27;;
60478;SDS011;46321;48.398;11.754;2023-02-15T04:58:06;25.33;;;10.60;;
60478;SDS011;46321;48.398;11.754;2023-02-15T05:00:32;27.02;;;10.02;;
60478;SDS011;46321;48.398;11.754;2023-02-15T05:02:57;25.45;;;10.65;;
60478;SDS011;46321;48.398;11.754;2023-02-15T05:05:22;24.73;;;9.85;;
60478;SDS011;46321;48.398;11.754;2023-02-15T05:07:47;28.23;;;10.43;;
60478;SDS011;46321;48.398;11.754;2023-02-15T05:10:13;24.23;;;9.25;;
60478;SDS011;46321;48.398;11.754;2023-02-15T05:12:38;25.20;;;9.25;;
60478;SDS011;46321;48.398;11.754;2023-02-15T05:15:03;24.98;;;9.88;;
60478;SDS011;46321;48.398;11.754;2023-02-15T05:17:29;19.67;;;9.88;;
60478;SDS011;46321;48.398;11.754;2023-02-15T05:19:54;27.70;;;10.10;;
60478;SDS011;46321;48.398;11.754;2023-02-15T05:22:19;33.05;;;10.25;;
60478;SDS011;46321;48.398;11.754;2023-02-15T05:24:44;33.85;;;9.95;;
60478;SDS011;46321;48.398;11.754;2023-02-15T05:27:28;23.70;;;9.63;;
60478;SDS011;46321;48.398;11.754;2023-02-15T05:30:12;25.13;;;9.77;;
60478;SDS011;46321;48.398;11.754;2023-02-15T05:32:38;32.72;;;10.63;;
60478;SDS011;46321;48.398;11.754;2023-02-15T05:35:04;35.95;;;9.50;;
60478;SDS011;46321;48.398;11.754;2023-02-15T05:37:31;26.55;;;10.13;;
60478;SDS011;46321;48.398;11.754;2023-02-15T05:39:56;24.63;;;9.88;;
60478;SDS011;46321;48.398;11.754;2023-02-15T05:42:21;24.15;;;9.70;;
60478;SDS011;46321;48.398;11.754;2023-02-15T05:44:46;25.55;;;10.23;;
60478;SDS011;46321;48.398;11.754;2023-02-15T05:47:12;26.52;;;9.95;;
60478;SDS011;46321;48.398;11.754;2023-02-15T05:49:37;24.95;;;10.13;;
60478;SDS011;46321;48.398;11.754;2023-02-15T05:52:02;28.10;;;11.13;;
60478;SDS011;46321;48.398;11.754;2023-02-15T05:54:28;28.02;;;11.70;;
60478;SDS011;46321;48.398;11.754;2023-02-15T05:56:53;30.00;;;11.00;;
60478;SDS011;46321;48.398;11.754;2023-02-15T05:59:19;27.65;;;11.13;;
60478;SDS011;46321;48.398;11.754;2023-02-15T06:01:44;25.15;;;10.10;;
60478;SDS011;46321;48.398;11.754;2023-02-15T06:04:09;29.75;;;10.93;;
60478;SDS011;46321;48.398;11.754;2023-02-15T06:06:34;32.65;;;10.52;;
60478;SDS011;46321;48.398;11.754;2023-02-15T06:09:00;23.70;;;10.65;;
60478;SDS011;46321;48.398;11.754;2023-02-15T06:11:25;21.75;;;9.30;;
60478;SDS011;46321;48.398;11.754;2023-02-15T06:13:50;29.27;;;11.20;;
60478;SDS011;46321;48.398;11.754;2023-02-15T06:16:16;23.38;;;9.93;;
60478;SDS011;46321;48.398;11.754;2023-02-15T06:18:41;27.85;;;10.95;;
60478;SDS011;46321;48.398;11.754;2023-02-15T06:21:06;27.10;;;10.10;;
60478;SDS011;46321;48.398;11.754;2023-02-15T06:23:32;41.97;;;11.88;;
60478;SDS011;46321;48.398;11.754;2023-02-15T06:25:57;28.13;;;10.60;;
60478;SDS011;46321;48.398;11.754;2023-02-15T06:28:22;26.55;;;10.43;;
60478;SDS011;46321;48.398;11.754;2023-02-15T06:30:50;32.65;;;11.70;;
60478;SDS011;46321;48.398;11.754;2023-02-15T06:33:15;30.17;;;12.38;;
60478;SDS011;46321;48.398;11.754;2023-02-15T06:35:40;35.83;;;13.45;;
60478;SDS011;46321;48.398;11.754;2023-02-15T06:38:06;32.38;;;12.52;;
60478;SDS011;46321;48.398;11.754;2023-02-15T06:40:31;43.90;;;14.15;;
60478;SDS011;46321;48.398;11.754;2023-02-15T06:42:56;43.08;;;14.23;;
60478;SDS011;46321;48.398;11.754;2023-02-15T06:45:21;40.88;;;14.70;;
60478;SDS011;46321;48.398;11.754;2023-02-15T06:47:47;32.10;;;12.50;;
60478;SDS011;46321;48.398;11.754;2023-02-15T06:50:12;38.42;;;13.65;;
60478;SDS011;46321;48.398;11.754;2023-02-15T06:52:37;59.88;;;16.45;;
60478;SDS011;46321;48.398;11.754;2023-02-15T06:55:02;37.33;;;14.75;;
60478;SDS011;46321;48.398;11.754;2023-02-15T06:57:28;37.42;;;13.48;;
60478;SDS011;46321;48.398;11.754;2023-02-15T06:59:53;36.78;;;13.65;;
60478;SDS011;46321;48.398;11.754;2023-02-15T07:02:19;36.20;;;12.73;;
60478;SDS011;46321;48.398;11.754;2023-02-15T07:04:44;35.00;;;13.43;;
60478;SDS011;46321;48.398;11.754;2023-02-15T07:07:10;36.95;;;13.35;;
60478;SDS011;46321;48.398;11.754;2023-02-15T07:09:36;40.17;;;14.52;;
60478;SDS011;46321;48.398;11.754;2023-02-15T07:12:02;44.00;;;14.02;;
60478;SDS011;46321;48.398;11.754;2023-02-15T07:14:46;37.90;;;14.10;;
60478;SDS011;46321;48.398;11.754;2023-02-15T07:17:11;48.95;;;18.42;;
60478;SDS011;46321;48.398;11.754;2023-02-15T07:19:37;40.58;;;14.30;;
60478;SDS011;46321;48.398;11.754;2023-02-15T07:22:02;40.67;;;14.60;;
60478;SDS011;46321;48.398;11.754;2023-02-15T07:24:29;42.22;;;14.80;;
60478;SDS011;46321;48.398;11.754;2023-02-15T07:26:54;38.15;;;13.95;;
60478;SDS011;46321;48.398;11.754;2023-02-15T07:29:19;38.40;;;13.77;;
60478;SDS011;46321;48.398;11.754;2023-02-15T07:31:44;35.08;;;13.38;;
60478;SDS011;46321;48.398;11.754;2023-02-15T07:34:10;34.55;;;12.30;;
60478;SDS011;46321;48.398;11.754;2023-02-15T07:36:35;33.92;;;13.10;;
60478;SDS011;46321;48.398;11.754;2023-02-15T07:39:01;40.83;;;12.90;;
60478;SDS011;46321;48.398;11.754;2023-02-15T07:41:26;30.15;;;11.85;;
60478;SDS011;46321;48.398;11.754;2023-02-15T07:43:51;32.78;;;11.15;;
60478;SDS011;46321;48.398;11.754;2023-02-15T07:46:17;38.35;;;13.10;;
60478;SDS011;46321;48.398;11.754;2023-02-15T07:48:43;35.65;;;13.23;;
60478;SDS011;46321;48.398;11.754;2023-02-15T07:51:10;44.85;;;12.90;;
60478;SDS011;46321;48.398;11.754;2023-02-15T07:53:36;40.10;;;12.60;;
60478;SDS011;46321;48.398;11.754;2023-02-15T07:56:04;37.20;;;13.20;;
60478;SDS011;46321;48.398;11.754;2023-02-15T07:58:31;36.30;;;12.60;;
60478;SDS011;46321;48.398;11.754;2023-02-15T08:01:16;33.10;;;12.88;;
60478;SDS011;46321;48.398;11.754;2023-02-15T08:03:42;35.92;;;12.13;;
60478;SDS011;46321;48.398;11.754;2023-02-15T08:06:08;33.63;;;11.93;;
60478;SDS011;46321;48.398;11.754;2023-02-15T08:08:34;31.30;;;11.80;;
60478;SDS011;46321;48.398;11.754;2023-02-15T08:11:13;35.05;;;12.68;;
60478;SDS011;46321;48.398;11.754;2023-02-15T08:13:53;33.95;;;12.45;;
60478;SDS011;46321;48.398;11.754;2023-02-15T08:18:56;37.53;;;14.18;;
60478;SDS011;46321;48.398;11.754;2023-02-15T08:21:22;38.38;;;15.80;;
60478;SDS011;46321;48.398;11.754;2023-02-15T08:23:49;35.63;;;14.00;;
60478;SDS011;46321;48.398;11.754;2023-02-15T08:26:14;35.80;;;13.45;;
60478;SDS011;46321;48.398;11.754;2023-02-15T08:28:41;35.70;;;12.63;;
60478;SDS011;46321;48.398;11.754;2023-02-15T08:31:07;36.50;;;13.10;;
60478;SDS011;46321;48.398;11.754;2023-02-15T08:33:34;29.05;;;12.05;;
60478;SDS011;46321;48.398;11.754;2023-02-15T08:36:05;35.08;;;12.95;;
60478;SDS011;46321;48.398;11.754;2023-02-15T08:38:33;31.33;;;11.32;;
60478;SDS011;46321;48.398;11.754;2023-02-15T08:41:08;31.67;;;11.43;;
60478;SDS011;46321;48.398;11.754;2023-02-15T08:43:36;31.05;;;12.18;;
60478;SDS011;46321;48.398;11.754;2023-02-15T08:46:01;31.55;;;13.45;;
60478;SDS011;46321;48.398;11.754;2023-02-15T08:48:26;38.55;;;14.05;;
60478;SDS011;46321;48.398;11.754;2023-02-15T08:50:52;35.25;;;12.57;;
60478;SDS011;46321;48.398;11.754;2023-02-15T08:53:17;33.83;;;12.52;;
60478;SDS011;46321;48.398;11.754;2023-02-15T08:55:46;32.60;;;12.07;;
60478;SDS011;46321;48.398;11.754;2023-02-15T08:58:11;36.25;;;13.05;;
60478;SDS011;46321;48.398;11.754;2023-02-15T09:00:37;38.60;;;13.38;;
60478;SDS011;46321;48.398;11.754;2023-02-15T09:03:02;33.25;;;13.50;;
60478;SDS011;46321;48.398;11.754;2023-02-15T09:05:28;38.13;;;13.98;;
60478;SDS011;46321;48.398;11.754;2023-02-15T09:07:53;40.17;;;12.93;;
60478;SDS011;46321;48.398;11.754;2023-02-15T09:10:18;34.00;;;12.93;;
60478;SDS011;46321;48.398;11.754;2023-02-15T09:12:44;36.70;;;13.45;;
60478;SDS011;46321;48.398;11.754;2023-02-15T09:15:09;34.35;;;13.18;;
60478;SDS011;46321;48.398;11.754;2023-02-15T09:17:35;38.70;;;14.20;;
60478;SDS011;46321;48.398;11.754;2023-02-15T09:20:01;39.25;;;13.98;;
60478;SDS011;46321;48.398;11.754;2023-02-15T09:22:26;35.10;;;14.40;;
60478;SDS011;46321;48.398;11.754;2023-02-15T09:24:51;38.85;;;14.95;;
60478;SDS011;46321;48.398;11.754;2023-02-15T09:27:17;40.25;;;15.07;;
60478;SDS011;46321;48.398;11.754;2023-02-15T09:29:42;39.03;;;15.15;;
60478;SDS011;46321;48.398;11.754;2023-02-15T09:32:07;39.95;;;14.95;;
60478;SDS011;46321;48.398;11.754;2023-02-15T09:34:33;40.97;;;15.35;;
60478;SDS011;46321;48.398;11.754;2023-02-15T09:36:58;41.17;;;14.82;;
60478;SDS011;46321;48.398;11.754;2023-02-15T09:39:24;39.53;;;15.02;;
60478;SDS011;46321;48.398;11.754;2023-02-15T09:44:37;41.72;;;14.82;;
60478;SDS011;46321;48.398;11.754;2023-02-15T09:47:37;38.45;;;14.45;;
60478;SDS011;46321;48.398;11.754;2023-02-15T09:50:33;36.88;;;14.05;;
60478;SDS011;46321;48.398;11.754;2023-02-15T09:56:10;38.38;;;13.32;;
60478;SDS011;46321;48.398;11.754;2023-02-15T09:58:46;35.25;;;13.63;;
60478;SDS011;46321;48.398;11.754;2023-02-15T10:07:00;36.95;;;14.20;;
60478;SDS011;46321;48.398;11.754;2023-02-15T10:18:45;39.35;;;15.00;;
60478;SDS011;46321;48.398;11.754;2023-02-15T10:21:59;41.80;;;15.38;;
60478;SDS011;46321;48.398;11.754;2023-02-15T10:24:49;36.35;;;15.15;;
60478;SDS011;46321;48.398;11.754;2023-02-15T10:27:19;36.53;;;14.43;;
60478;SDS011;46321;48.398;11.754;2023-02-15T10:29:49;40.10;;;14.85;;
60478;SDS011;46321;48.398;11.754;2023-02-15T10:32:26;36.20;;;15.07;;
60478;SDS011;46321;48.398;11.754;2023-02-15T10:34:57;38.05;;;15.05;;
60478;SDS011;46321;48.398;11.754;2023-02-15T10:41:19;37.92;;;15.07;;
60478;SDS011;46321;48.398;11.754;2023-02-15T10:46:35;36.95;;;15.10;;
60478;SDS011;46321;48.398;11.754;2023-02-15T10:55:06;38.55;;;17.30;;
60478;SDS011;46321;48.398;11.754;2023-02-15T11:01:02;61.05;;;22.27;;
60478;SDS011;46321;48.398;11.754;2023-02-15T11:06:35;46.53;;;17.05;;
60478;SDS011;46321;48.398;11.754;2023-02-15T11:09:08;41.35;;;17.85;;
60478;SDS011;46321;48.398;11.754;2023-02-15T11:11:38;45.63;;;17.13;;
60478;SDS011;46321;48.398;11.754;2023-02-15T11:17:12;42.75;;;17.52;;
60478;SDS011;46321;48.398;11.754;2023-02-15T11:19:43;40.43;;;16.33;;
60478;SDS011;46321;48.398;11.754;2023-02-15T11:22:19;40.72;;;16.95;;
60478;SDS011;46321;48.398;11.754;2023-02-15T11:24:44;47.72;;;17.83;;
60478;SDS011;46321;48.398;11.754;2023-02-15T11:29:52;43.05;;;17.30;;
60478;SDS011;46321;48.398;11.754;2023-02-15T11:37:50;38.00;;;16.85;;
60478;SDS011;46321;48.398;11.754;2023-02-15T11:40:20;46.67;;;17.27;;
60478;SDS011;46321;48.398;11.754;2023-02-15T11:42:49;44.38;;;18.55;;
60478;SDS011;46321;48.398;11.754;2023-02-15T11:45:23;43.80;;;17.83;;
60478;SDS011;46321;48.398;11.754;2023-02-15T11:47:52;46.80;;;17.92;;
60478;SDS011;46321;48.398;11.754;2023-02-15T11:50:28;43.25;;;18.05;;
60478;SDS011;46321;48.398;11.754;2023-02-15T11:52:57;41.97;;;16.67;;
60478;SDS011;46321;48.398;11.754;2023-02-15T11:55:25;49.75;;;20.65;;
60478;SDS011;46321;48.398;11.754;2023-02-15T11:58:01;58.10;;;23.13;;
60478;SDS011;46321;48.398;11.754;2023-02-15T12:00:34;35.75;;;14.93;;
60478;SDS011;46321;48.398;11.754;2023-02-15T12:03:12;42.53;;;15.88;;
60478;SDS011;46321;48.398;11.754;2023-02-15T12:05:42;37.22;;;15.77;;
60478;SDS011;46321;48.398;11.754;2023-02-15T12:08:17;38.55;;;15.02;;
60478;SDS011;46321;48.398;11.754;2023-02-15T12:10:51;39.83;;;16.58;;
60478;SDS011;46321;48.398;11.754;2023-02-15T12:13:22;35.85;;;15.07;;
60478;SDS011;46321;48.398;11.754;2023-02-15T12:15:49;41.15;;;16.40;;
60478;SDS011;46321;48.398;11.754;2023-02-15T12:18:24;38.65;;;16.27;;
60478;SDS011;46321;48.398;11.754;2023-02-15T12:21:00;39.03;;;17.02;;
60478;SDS011;46321;48.398;11.754;2023-02-15T12:23:30;39.88;;;16.00;;
60478;SDS011;46321;48.398;11.754;2023-02-15T12:25:57;39.35;;;17.60;;
60478;SDS011;46321;48.398;11.754;2023-02-15T12:28:24;55.40;;;23.25;;
60478;SDS011;46321;48.398;11.754;2023-02-15T12:30:50;53.00;;;22.33;;
60478;SDS011;46321;48.398;11.754;2023-02-15T12:36:26;40.05;;;17.33;;
60478;SDS011;46321;48.398;11.754;2023-02-15T12:41:32;35.60;;;16.05;;
60478;SDS011;46321;48.398;11.754;2023-02-15T12:44:05;37.28;;;16.10;;
60478;SDS011;46321;48.398;11.754;2023-02-15T12:46:48;40.42;;;16.23;;
60478;SDS011;46321;48.398;11.754;2023-02-15T12:49:20;37.40;;;15.05;;
60478;SDS011;46321;48.398;11.754;2023-02-15T12:51:50;36.38;;;15.73;;
60478;SDS011;46321;48.398;11.754;2023-02-15T12:56:59;34.05;;;15.63;;
60478;SDS011;46321;48.398;11.754;2023-02-15T12:59:48;33.33;;;14.73;;
60478;SDS011;46321;48.398;11.754;2023-02-15T13:02:19;33.58;;;15.10;;
60478;SDS011;46321;48.398;11.754;2023-02-15T13:04:48;35.28;;;16.00;;
60478;SDS011;46321;48.398;11.754;2023-02-15T13:07:15;35.50;;;15.57;;
60478;SDS011;46321;48.398;11.754;2023-02-15T13:09:40;50.03;;;21.63;;
60478;SDS011;46321;48.398;11.754;2023-02-15T13:14:49;36.10;;;15.13;;
60478;SDS011;46321;48.398;11.754;2023-02-15T13:17:16;36.80;;;15.75;;
60478;SDS011;46321;48.398;11.754;2023-02-15T13:19:54;31.98;;;14.55;;
60478;SDS011;46321;48.398;11.754;2023-02-15T13:22:27;33.80;;;15.18;;
60478;SDS011;46321;48.398;11.754;2023-02-15T13:25:01;33.03;;;14.13;;
60478;SDS011;46321;48.398;11.754;2023-02-15T13:27:40;32.83;;;14.85;;
60478;SDS011;46321;48.398;11.754;2023-02-15T13:30:13;38.60;;;15.70;;
60478;SDS011;46321;48.398;11.754;2023-02-15T13:32:48;35.40;;;15.20;;
60478;SDS011;46321;48.398;11.754;2023-02-15T13:35:16;33.38;;;15.35;;
60478;SDS011;46321;48.398;11.754;2023-02-15T13:40:33;35.78;;;15.73;;
60478;SDS011;46321;48.398;11.754;2023-02-15T13:53:56;37.75;;;16.48;;
60478;SDS011;46321;48.398;11.754;2023-02-15T13:56:42;33.30;;;14.73;;
60478;SDS011;46321;48.398;11.754;2023-02-15T13:59:22;35.53;;;16.17;;
60478;SDS011;46321;48.398;11.754;2023-02-15T14:19:09;35.00;;;15.70;;
60478;SDS011;46321;48.398;11.754;2023-02-15T14:22:00;45.30;;;19.58;;
60478;SDS011;46321;48.398;11.754;2023-02-15T14:24:43;42.03;;;17.83;;
60478;SDS011;46321;48.398;11.754;2023-02-15T14:30:18;38.90;;;17.67;;
60478;SDS011;46321;48.398;11.754;2023-02-15T14:32:48;39.13;;;17.20;;
60478;SDS011;46321;48.398;11.754;2023-02-15T14:35:17;37.95;;;14.90;;
60478;SDS011;46321;48.398;11.754;2023-02-15T14:43:31;37.83;;;15.68;;
60478;SDS011;46321;48.398;11.754;2023-02-15T14:46:01;33.63;;;14.73;;
60478;SDS011;46321;48.398;11.754;2023-02-15T14:51:32;31.02;;;14.40;;
60478;SDS011;46321;48.398;11.754;2023-02-15T14:54:08;36.75;;;15.00;;
60478;SDS011;46321;48.398;11.754;2023-02-15T14:56:34;32.80;;;15.80;;
60478;SDS011;46321;48.398;11.754;2023-02-15T14:59:19;29.55;;;13.65;;
60478;SDS011;46321;48.398;11.754;2023-02-15T15:02:00;32.70;;;15.05;;
60478;SDS011;46321;48.398;11.754;2023-02-15T15:04:36;36.80;;;14.32;;
60478;SDS011;46321;48.398;11.754;2023-02-15T15:09:29;44.00;;;19.40;;
60478;SDS011;46321;48.398;11.754;2023-02-15T15:12:15;42.05;;;19.95;;
60478;SDS011;46321;48.398;11.754;2023-02-15T15:14:46;34.97;;;14.73;;
60478;SDS011;46321;48.398;11.754;2023-02-15T15:19:58;34.92;;;14.98;;
60478;SDS011;46321;48.398;11.754;2023-02-15T15:22:36;39.55;;;15.80;;
60478;SDS011;46321;48.398;11.754;2023-02-15T15:25:12;34.03;;;15.18;;
60478;SDS011;46321;48.398;11.754;2023-02-15T15:28:07;30.98;;;13.75;;
60478;SDS011;46321;48.398;11.754;2023-02-15T15:32:59;34.05;;;14.45;;
60478;SDS011;46321;48.398;11.754;2023-02-15T15:47:27;35.05;;;14.90;;
60478;SDS011;46321;48.398;11.754;2023-02-15T15:50:15;38.70;;;15.63;;
60478;SDS011;46321;48.398;11.754;2023-02-15T15:52:45;50.25;;;19.17;;
60478;SDS011;46321;48.398;11.754;2023-02-15T15:55:15;44.25;;;18.63;;
60478;SDS011;46321;48.398;11.754;2023-02-15T15:57:43;57.13;;;18.40;;
60478;SDS011;46321;48.398;11.754;2023-02-15T16:03:22;50.15;;;19.50;;
60478;SDS011;46321;48.398;11.754;2023-02-15T16:05:53;92.90;;;38.30;;
60478;SDS011;46321;48.398;11.754;2023-02-15T16:08:36;69.25;;;27.88;;
60478;SDS011;46321;48.398;11.754;2023-02-15T16:11:12;51.53;;;20.00;;
60478;SDS011;46321;48.398;11.754;2023-02-15T16:13:41;59.00;;;20.88;;
60478;SDS011;46321;48.398;11.754;2023-02-15T16:16:08;57.40;;;21.15;;
60478;SDS011;46321;48.398;11.754;2023-02-15T16:18:36;57.78;;;22.33;;
60478;SDS011;46321;48.398;11.754;2023-02-15T16:21:03;53.72;;;20.83;;
60478;SDS011;46321;48.398;11.754;2023-02-15T16:29:15;55.78;;;22.00;;
60478;SDS011;46321;48.398;11.754;2023-02-15T16:31:42;57.10;;;20.90;;
60478;SDS011;46321;48.398;11.754;2023-02-15T16:34:17;53.35;;;19.75;;
60478;SDS011;46321;48.398;11.754;2023-02-15T16:36:42;56.22;;;20.25;;
60478;SDS011;46321;48.398;11.754;2023-02-15T16:39:18;56.92;;;20.80;;
60478;SDS011;46321;48.398;11.754;2023-02-15T16:41:44;46.22;;;19.45;;
60478;SDS011;46321;48.398;11.754;2023-02-15T16:44:14;48.10;;;19.42;;
60478;SDS011;46321;48.398;11.754;2023-02-15T16:46:48;53.80;;;19.20;;
60478;SDS011;46321;48.398;11.754;2023-02-15T16:49:20;44.15;;;18.70;;
60478;SDS011;46321;48.398;11.754;2023-02-15T16:51:53;52.33;;;20.20;;
60478;SDS011;46321;48.398;11.754;2023-02-15T16:54:24;46.22;;;18.63;;
60478;SDS011;46321;48.398;11.754;2023-02-15T16:56:52;47.17;;;18.38;;
60478;SDS011;46321;48.398;11.754;2023-02-15T16:59:38;51.58;;;19.35;;
60478;SDS011;46321;48.398;11.754;2023-02-15T17:02:27;51.13;;;19.85;;
60478;SDS011;46321;48.398;11.754;2023-02-15T17:07:38;53.22;;;20.85;;